sensor_id;sensor_type;location;lat;lon;timestamp;temperature;humidity
45409;DHT22;31162;51.076;3.784;2023-05-10T00:02:12;14.30;99.90
45409;DHT22;31162;51.076;3.784;2023-05-10T00:04:38;14.20;99.90
45409;DHT22;31162;51.076;3.784;2023-05-10T00:07:04;14.20;99.90
45409;DHT22;31162;51.076;3.784;2023-05-10T00:09:29;14.30;99.90
45409;DHT22;31162;51.076;3.784;2023-05-10T00:11:55;14.30;99.90
45409;DHT22;31162;51.076;3.784;2023-05-10T00:14:23;14.30;99.90
45409;DHT22;31162;51.076;3.784;2023-05-10T00:16:49;14.20;99.90
45409;DHT22;31162;51.076;3.784;2023-05-10T00:19:14;14.30;99.90
45409;DHT22;31162;51.076;3.784;2023-05-10T00:21:40;14.30;99.90
45409;DHT22;31162;51.076;3.784;2023-05-10T00:24:06;14.40;99.90
45409;DHT22;31162;51.076;3.784;2023-05-10T00:26:31;14.40;99.90
45409;DHT22;31162;51.076;3.784;2023-05-10T00:28:57;14.40;99.90
45409;DHT22;31162;51.076;3.784;2023-05-10T00:31:23;14.40;99.90
45409;DHT22;31162;51.076;3.784;2023-05-10T00:33:49;14.40;99.90
45409;DHT22;31162;51.076;3.784;2023-05-10T00:36:15;14.50;99.90
45409;DHT22;31162;51.076;3.784;2023-05-10T00:38:40;14.50;99.90
45409;DHT22;31162;51.076;3.784;2023-05-10T00:41:06;14.60;99.90
45409;DHT22;31162;51.076;3.784;2023-05-10T00:43:32;14.60;99.90
45409;DHT22;31162;51.076;3.784;2023-05-10T00:45:57;14.60;99.90
45409;DHT22;31162;51.076;3.784;2023-05-10T00:48:23;14.50;99.90
45409;DHT22;31162;51.076;3.784;2023-05-10T00:50:49;14.40;99.90
45409;DHT22;31162;51.076;3.784;2023-05-10T00:53:15;14.50;99.90
45409;DHT22;31162;51.076;3.784;2023-05-10T00:55:41;14.50;99.90
45409;DHT22;31162;51.076;3.784;2023-05-10T00:58:07;14.40;99.90
45409;DHT22;31162;51.076;3.784;2023-05-10T01:00:33;14.40;99.90
45409;DHT22;31162;51.076;3.784;2023-05-10T01:03:02;14.40;99.90
45409;DHT22;31162;51.076;3.784;2023-05-10T01:05:28;14.40;99.90
45409;DHT22;31162;51.076;3.784;2023-05-10T01:07:59;14.40;99.90
45409;DHT22;31162;51.076;3.784;2023-05-10T01:10:27;14.30;99.90
45409;DHT22;31162;51.076;3.784;2023-05-10T01:12:53;14.40;99.90
45409;DHT22;31162;51.076;3.784;2023-05-10T01:15:20;14.40;99.90
45409;DHT22;31162;51.076;3.784;2023-05-10T01:17:47;14.40;99.90
45409;DHT22;31162;51.076;3.784;2023-05-10T01:20:15;14.40;99.90
45409;DHT22;31162;51.076;3.784;2023-05-10T01:29:27;14.40;99.90
45409;DHT22;31162;51.076;3.784;2023-05-10T01:34:39;14.30;99.90
45409;DHT22;31162;51.076;3.784;2023-05-10T01:37:13;14.40;99.90
45409;DHT22;31162;51.076;3.784;2023-05-10T01:40:19;14.60;99.90
45409;DHT22;31162;51.076;3.784;2023-05-10T01:42:59;14.50;99.90
45409;DHT22;31162;51.076;3.784;2023-05-10T01:46:02;14.40;99.90
45409;DHT22;31162;51.076;3.784;2023-05-10T01:48:37;14.30;99.90
45409;DHT22;31162;51.076;3.784;2023-05-10T01:51:03;14.30;99.90
45409;DHT22;31162;51.076;3.784;2023-05-10T01:53:31;14.20;99.90
45409;DHT22;31162;51.076;3.784;2023-05-10T01:56:00;14.10;99.90
45409;DHT22;31162;51.076;3.784;2023-05-10T01:58:32;14.30;99.90
45409;DHT22;31162;51.076;3.784;2023-05-10T02:01:00;14.30;99.90
45409;DHT22;31162;51.076;3.784;2023-05-10T02:03:28;14.40;99.90
45409;DHT22;31162;51.076;3.784;2023-05-10T02:05:56;14.30;99.90
45409;DHT22;31162;51.076;3.784;2023-05-10T02:08:22;14.40;99.90
45409;DHT22;31162;51.076;3.784;2023-05-10T02:10:54;14.40;99.90
45409;DHT22;31162;51.076;3.784;2023-05-10T02:13:21;14.30;99.90
45409;DHT22;31162;51.076;3.784;2023-05-10T02:15:49;14.30;99.90
45409;DHT22;31162;51.076;3.784;2023-05-10T02:18:16;14.20;99.90
45409;DHT22;31162;51.076;3.784;2023-05-10T02:20:45;14.20;99.90
45409;DHT22;31162;51.076;3.784;2023-05-10T02:23:13;14.20;99.90
45409;DHT22;31162;51.076;3.784;2023-05-10T02:25:39;14.20;99.90
45409;DHT22;31162;51.076;3.784;2023-05-10T02:28:06;14.30;99.90
45409;DHT22;31162;51.076;3.784;2023-05-10T02:30:33;14.30;99.90
45409;DHT22;31162;51.076;3.784;2023-05-10T02:33:04;14.30;99.90
45409;DHT22;31162;51.076;3.784;2023-05-10T02:35:31;14.20;99.90
45409;DHT22;31162;51.076;3.784;2023-05-10T02:37:58;14.20;99.90
45409;DHT22;31162;51.076;3.784;2023-05-10T02:40:26;14.30;99.90
45409;DHT22;31162;51.076;3.784;2023-05-10T02:42:54;14.20;99.90
45409;DHT22;31162;51.076;3.784;2023-05-10T02:45:24;14.30;99.90
45409;DHT22;31162;51.076;3.784;2023-05-10T02:47:52;14.30;99.90
45409;DHT22;31162;51.076;3.784;2023-05-10T02:50:18;14.30;99.90
45409;DHT22;31162;51.076;3.784;2023-05-10T02:52:49;14.30;99.90
45409;DHT22;31162;51.076;3.784;2023-05-10T02:55:21;14.30;99.90
45409;DHT22;31162;51.076;3.784;2023-05-10T02:58:14;14.30;99.90
45409;DHT22;31162;51.076;3.784;2023-05-10T03:00:39;14.30;99.90
45409;DHT22;31162;51.076;3.784;2023-05-10T03:03:05;14.20;99.90
45409;DHT22;31162;51.076;3.784;2023-05-10T03:05:31;14.30;99.90
45409;DHT22;31162;51.076;3.784;2023-05-10T03:07:59;14.20;99.90
45409;DHT22;31162;51.076;3.784;2023-05-10T03:10:27;14.20;99.90
45409;DHT22;31162;51.076;3.784;2023-05-10T03:18:18;14.20;99.90
45409;DHT22;31162;51.076;3.784;2023-05-10T03:20:50;14.30;99.90
45409;DHT22;31162;51.076;3.784;2023-05-10T03:26:27;14.20;99.90
45409;DHT22;31162;51.076;3.784;2023-05-10T03:28:54;14.30;99.90
45409;DHT22;31162;51.076;3.784;2023-05-10T03:31:20;14.30;99.90
45409;DHT22;31162;51.076;3.784;2023-05-10T03:33:47;14.30;99.90
45409;DHT22;31162;51.076;3.784;2023-05-10T03:36:13;14.30;99.90
45409;DHT22;31162;51.076;3.784;2023-05-10T03:38:39;14.30;99.90
45409;DHT22;31162;51.076;3.784;2023-05-10T03:41:05;14.30;99.90
45409;DHT22;31162;51.076;3.784;2023-05-10T03:43:30;14.30;99.90
45409;DHT22;31162;51.076;3.784;2023-05-10T03:45:58;14.30;99.90
45409;DHT22;31162;51.076;3.784;2023-05-10T03:48:26;14.30;99.90
45409;DHT22;31162;51.076;3.784;2023-05-10T03:50:51;14.30;99.90
45409;DHT22;31162;51.076;3.784;2023-05-10T03:53:17;14.30;99.90
45409;DHT22;31162;51.076;3.784;2023-05-10T03:55:43;14.20;99.90
45409;DHT22;31162;51.076;3.784;2023-05-10T03:58:11;14.20;99.90
45409;DHT22;31162;51.076;3.784;2023-05-10T04:00:37;14.20;99.90
45409;DHT22;31162;51.076;3.784;2023-05-10T04:03:03;14.20;99.90
45409;DHT22;31162;51.076;3.784;2023-05-10T04:05:28;14.30;99.90
45409;DHT22;31162;51.076;3.784;2023-05-10T04:07:54;14.30;99.90
45409;DHT22;31162;51.076;3.784;2023-05-10T04:10:23;14.20;99.90
45409;DHT22;31162;51.076;3.784;2023-05-10T04:12:50;14.20;99.90
45409;DHT22;31162;51.076;3.784;2023-05-10T04:15:16;14.20;99.90
45409;DHT22;31162;51.076;3.784;2023-05-10T04:17:42;14.20;99.90
45409;DHT22;31162;51.076;3.784;2023-05-10T04:20:08;14.10;99.90
45409;DHT22;31162;51.076;3.784;2023-05-10T04:22:33;14.20;99.90
45409;DHT22;31162;51.076;3.784;2023-05-10T04:24:59;14.30;99.90
45409;DHT22;31162;51.076;3.784;2023-05-10T04:27:25;14.40;99.90
45409;DHT22;31162;51.076;3.784;2023-05-10T04:29:50;14.40;99.90
45409;DHT22;31162;51.076;3.784;2023-05-10T04:32:18;14.50;99.90
45409;DHT22;31162;51.076;3.784;2023-05-10T04:34:45;14.50;99.90
45409;DHT22;31162;51.076;3.784;2023-05-10T04:37:11;14.60;99.90
45409;DHT22;31162;51.076;3.784;2023-05-10T04:39:36;14.60;99.90
45409;DHT22;31162;51.076;3.784;2023-05-10T04:42:05;14.70;99.90
45409;DHT22;31162;51.076;3.784;2023-05-10T04:44:32;14.70;99.90
45409;DHT22;31162;51.076;3.784;2023-05-10T04:47:00;14.70;99.90
45409;DHT22;31162;51.076;3.784;2023-05-10T04:49:27;14.70;99.90
45409;DHT22;31162;51.076;3.784;2023-05-10T04:51:53;14.80;99.90
45409;DHT22;31162;51.076;3.784;2023-05-10T04:54:21;14.80;99.90
45409;DHT22;31162;51.076;3.784;2023-05-10T04:56:47;14.70;99.90
45409;DHT22;31162;51.076;3.784;2023-05-10T04:59:15;14.70;99.90
45409;DHT22;31162;51.076;3.784;2023-05-10T05:01:41;14.70;99.90
45409;DHT22;31162;51.076;3.784;2023-05-10T05:04:06;14.70;99.90
45409;DHT22;31162;51.076;3.784;2023-05-10T05:06:32;14.50;99.90
45409;DHT22;31162;51.076;3.784;2023-05-10T05:08:58;14.60;99.90
45409;DHT22;31162;51.076;3.784;2023-05-10T05:11:24;14.70;99.90
45409;DHT22;31162;51.076;3.784;2023-05-10T05:13:51;14.70;99.90
45409;DHT22;31162;51.076;3.784;2023-05-10T05:16:17;14.70;99.90
45409;DHT22;31162;51.076;3.784;2023-05-10T05:18:43;14.60;99.90
45409;DHT22;31162;51.076;3.784;2023-05-10T05:21:18;14.70;99.90
45409;DHT22;31162;51.076;3.784;2023-05-10T05:23:45;14.60;99.90
45409;DHT22;31162;51.076;3.784;2023-05-10T05:26:11;14.70;99.90
45409;DHT22;31162;51.076;3.784;2023-05-10T05:28:37;14.80;99.90
45409;DHT22;31162;51.076;3.784;2023-05-10T05:31:07;14.80;99.90
45409;DHT22;31162;51.076;3.784;2023-05-10T05:33:35;15.00;99.90
45409;DHT22;31162;51.076;3.784;2023-05-10T05:36:02;15.10;99.90
45409;DHT22;31162;51.076;3.784;2023-05-10T05:38:28;15.10;99.90
45409;DHT22;31162;51.076;3.784;2023-05-10T05:40:54;15.10;99.90
45409;DHT22;31162;51.076;3.784;2023-05-10T05:43:19;15.10;99.90
45409;DHT22;31162;51.076;3.784;2023-05-10T05:45:45;15.30;99.90
45409;DHT22;31162;51.076;3.784;2023-05-10T05:48:11;15.50;99.90
45409;DHT22;31162;51.076;3.784;2023-05-10T05:50:36;15.70;99.90
45409;DHT22;31162;51.076;3.784;2023-05-10T05:53:02;15.90;99.90
45409;DHT22;31162;51.076;3.784;2023-05-10T05:55:28;15.90;99.90
45409;DHT22;31162;51.076;3.784;2023-05-10T05:57:57;15.90;99.90
45409;DHT22;31162;51.076;3.784;2023-05-10T06:00:26;16.00;99.90
45409;DHT22;31162;51.076;3.784;2023-05-10T06:02:51;16.10;99.90
45409;DHT22;31162;51.076;3.784;2023-05-10T06:05:17;16.10;99.90
45409;DHT22;31162;51.076;3.784;2023-05-10T06:07:43;16.20;99.90
45409;DHT22;31162;51.076;3.784;2023-05-10T06:10:09;16.20;99.90
45409;DHT22;31162;51.076;3.784;2023-05-10T06:12:35;16.40;99.90
45409;DHT22;31162;51.076;3.784;2023-05-10T06:15:01;16.60;99.90
45409;DHT22;31162;51.076;3.784;2023-05-10T06:17:27;16.80;99.90
45409;DHT22;31162;51.076;3.784;2023-05-10T06:19:52;16.90;99.90
45409;DHT22;31162;51.076;3.784;2023-05-10T06:22:18;16.90;99.90
45409;DHT22;31162;51.076;3.784;2023-05-10T06:24:44;16.90;99.90
45409;DHT22;31162;51.076;3.784;2023-05-10T06:27:09;16.90;99.90
45409;DHT22;31162;51.076;3.784;2023-05-10T06:29:35;16.90;99.90
45409;DHT22;31162;51.076;3.784;2023-05-10T06:32:01;16.90;99.90
45409;DHT22;31162;51.076;3.784;2023-05-10T06:34:27;17.10;99.90
45409;DHT22;31162;51.076;3.784;2023-05-10T06:36:53;17.10;99.90
45409;DHT22;31162;51.076;3.784;2023-05-10T06:39:18;17.10;99.90
45409;DHT22;31162;51.076;3.784;2023-05-10T06:41:44;17.20;99.90
45409;DHT22;31162;51.076;3.784;2023-05-10T06:44:10;17.10;99.90
45409;DHT22;31162;51.076;3.784;2023-05-10T06:46:36;17.00;99.90
45409;DHT22;31162;51.076;3.784;2023-05-10T06:49:01;16.90;99.90
45409;DHT22;31162;51.076;3.784;2023-05-10T06:51:27;16.80;99.90
45409;DHT22;31162;51.076;3.784;2023-05-10T06:53:53;16.60;99.90
45409;DHT22;31162;51.076;3.784;2023-05-10T06:56:18;16.60;99.90
45409;DHT22;31162;51.076;3.784;2023-05-10T06:58:47;16.70;99.90
45409;DHT22;31162;51.076;3.784;2023-05-10T07:01:13;17.00;99.90
45409;DHT22;31162;51.076;3.784;2023-05-10T07:03:38;17.00;99.90
45409;DHT22;31162;51.076;3.784;2023-05-10T07:06:04;17.00;99.90
45409;DHT22;31162;51.076;3.784;2023-05-10T07:08:31;17.10;99.90
45409;DHT22;31162;51.076;3.784;2023-05-10T07:11:04;17.10;99.90
45409;DHT22;31162;51.076;3.784;2023-05-10T07:13:31;17.10;99.90
45409;DHT22;31162;51.076;3.784;2023-05-10T07:15:57;17.30;99.90
45409;DHT22;31162;51.076;3.784;2023-05-10T07:18:24;17.40;99.90
45409;DHT22;31162;51.076;3.784;2023-05-10T07:20:52;17.60;99.90
45409;DHT22;31162;51.076;3.784;2023-05-10T07:23:17;17.70;99.90
45409;DHT22;31162;51.076;3.784;2023-05-10T07:25:51;17.60;99.90
45409;DHT22;31162;51.076;3.784;2023-05-10T07:28:18;17.50;99.90
45409;DHT22;31162;51.076;3.784;2023-05-10T07:30:44;17.40;99.90
45409;DHT22;31162;51.076;3.784;2023-05-10T07:33:11;17.30;99.90
45409;DHT22;31162;51.076;3.784;2023-05-10T07:35:37;17.20;99.90
45409;DHT22;31162;51.076;3.784;2023-05-10T07:38:03;17.30;99.90
45409;DHT22;31162;51.076;3.784;2023-05-10T07:40:29;17.30;99.90
45409;DHT22;31162;51.076;3.784;2023-05-10T07:42:58;17.50;99.90
45409;DHT22;31162;51.076;3.784;2023-05-10T07:45:26;17.60;99.90
45409;DHT22;31162;51.076;3.784;2023-05-10T07:47:51;17.60;99.90
45409;DHT22;31162;51.076;3.784;2023-05-10T07:50:20;17.60;99.90
45409;DHT22;31162;51.076;3.784;2023-05-10T07:52:49;17.60;99.90
45409;DHT22;31162;51.076;3.784;2023-05-10T07:55:14;17.30;99.90
45409;DHT22;31162;51.076;3.784;2023-05-10T07:57:41;17.00;99.90
45409;DHT22;31162;51.076;3.784;2023-05-10T08:00:08;16.70;99.90
45409;DHT22;31162;51.076;3.784;2023-05-10T08:02:36;16.50;99.90
45409;DHT22;31162;51.076;3.784;2023-05-10T08:05:01;16.30;99.90
45409;DHT22;31162;51.076;3.784;2023-05-10T08:07:27;16.30;99.90
45409;DHT22;31162;51.076;3.784;2023-05-10T08:09:53;16.30;99.90
45409;DHT22;31162;51.076;3.784;2023-05-10T08:12:19;16.20;99.90
45409;DHT22;31162;51.076;3.784;2023-05-10T08:14:44;16.10;99.90
45409;DHT22;31162;51.076;3.784;2023-05-10T08:17:10;16.00;99.90
45409;DHT22;31162;51.076;3.784;2023-05-10T08:19:36;16.10;99.90
45409;DHT22;31162;51.076;3.784;2023-05-10T08:22:01;16.20;99.90
45409;DHT22;31162;51.076;3.784;2023-05-10T08:24:27;16.30;99.90
45409;DHT22;31162;51.076;3.784;2023-05-10T08:26:53;16.40;99.90
45409;DHT22;31162;51.076;3.784;2023-05-10T08:29:18;16.60;99.90
45409;DHT22;31162;51.076;3.784;2023-05-10T08:31:44;16.80;99.90
45409;DHT22;31162;51.076;3.784;2023-05-10T08:34:10;16.80;99.90
45409;DHT22;31162;51.076;3.784;2023-05-10T08:36:36;16.90;99.90
45409;DHT22;31162;51.076;3.784;2023-05-10T08:39:01;16.90;99.90
45409;DHT22;31162;51.076;3.784;2023-05-10T08:41:27;17.00;99.90
45409;DHT22;31162;51.076;3.784;2023-05-10T08:43:54;16.90;99.90
45409;DHT22;31162;51.076;3.784;2023-05-10T08:46:22;16.90;99.90
45409;DHT22;31162;51.076;3.784;2023-05-10T08:48:50;16.70;99.90
45409;DHT22;31162;51.076;3.784;2023-05-10T08:51:22;16.50;99.90
45409;DHT22;31162;51.076;3.784;2023-05-10T08:53:50;16.40;99.90
45409;DHT22;31162;51.076;3.784;2023-05-10T08:56:16;16.30;99.90
45409;DHT22;31162;51.076;3.784;2023-05-10T08:58:43;16.30;99.90
45409;DHT22;31162;51.076;3.784;2023-05-10T09:01:09;16.20;99.90
45409;DHT22;31162;51.076;3.784;2023-05-10T09:03:38;16.10;99.90
45409;DHT22;31162;51.076;3.784;2023-05-10T09:06:04;16.10;99.90
45409;DHT22;31162;51.076;3.784;2023-05-10T09:08:30;16.10;99.90
45409;DHT22;31162;51.076;3.784;2023-05-10T09:10:56;16.20;99.90
45409;DHT22;31162;51.076;3.784;2023-05-10T09:13:23;16.50;99.90
45409;DHT22;31162;51.076;3.784;2023-05-10T09:15:50;17.00;99.90
45409;DHT22;31162;51.076;3.784;2023-05-10T09:18:16;17.30;99.90
45409;DHT22;31162;51.076;3.784;2023-05-10T09:20:42;17.20;99.90
45409;DHT22;31162;51.076;3.784;2023-05-10T09:23:08;17.00;99.90
45409;DHT22;31162;51.076;3.784;2023-05-10T09:25:36;16.80;99.90
45409;DHT22;31162;51.076;3.784;2023-05-10T09:28:06;16.50;99.90
45409;DHT22;31162;51.076;3.784;2023-05-10T09:30:33;16.40;99.90
45409;DHT22;31162;51.076;3.784;2023-05-10T09:32:59;16.30;99.90
45409;DHT22;31162;51.076;3.784;2023-05-10T09:35:28;16.00;99.90
45409;DHT22;31162;51.076;3.784;2023-05-10T09:37:55;16.00;99.90
45409;DHT22;31162;51.076;3.784;2023-05-10T09:40:23;16.00;99.90
45409;DHT22;31162;51.076;3.784;2023-05-10T09:45:21;16.80;99.90
45409;DHT22;31162;51.076;3.784;2023-05-10T09:47:47;17.50;99.90
45409;DHT22;31162;51.076;3.784;2023-05-10T09:50:12;18.70;99.90
45409;DHT22;31162;51.076;3.784;2023-05-10T09:55:13;22.60;99.90
45409;DHT22;31162;51.076;3.784;2023-05-10T09:57:39;23.60;99.90
45409;DHT22;31162;51.076;3.784;2023-05-10T10:00:06;23.90;99.90
45409;DHT22;31162;51.076;3.784;2023-05-10T10:02:32;23.80;99.90
45409;DHT22;31162;51.076;3.784;2023-05-10T10:05:03;23.60;99.90
45409;DHT22;31162;51.076;3.784;2023-05-10T10:07:29;23.30;99.90
45409;DHT22;31162;51.076;3.784;2023-05-10T10:09:55;23.30;99.90
45409;DHT22;31162;51.076;3.784;2023-05-10T10:12:21;23.00;99.90
45409;DHT22;31162;51.076;3.784;2023-05-10T10:14:49;22.80;99.90
45409;DHT22;31162;51.076;3.784;2023-05-10T10:17:16;22.40;99.90
45409;DHT22;31162;51.076;3.784;2023-05-10T10:19:42;22.30;99.90
45409;DHT22;31162;51.076;3.784;2023-05-10T10:22:08;22.40;99.90
45409;DHT22;31162;51.076;3.784;2023-05-10T10:24:36;22.60;99.90
45409;DHT22;31162;51.076;3.784;2023-05-10T10:27:09;23.10;99.90
45409;DHT22;31162;51.076;3.784;2023-05-10T10:29:57;23.50;99.90
45409;DHT22;31162;51.076;3.784;2023-05-10T10:32:48;23.30;99.90
45409;DHT22;31162;51.076;3.784;2023-05-10T10:35:21;24.00;99.90
45409;DHT22;31162;51.076;3.784;2023-05-10T10:37:48;25.10;99.90
45409;DHT22;31162;51.076;3.784;2023-05-10T10:40:32;25.50;99.90
45409;DHT22;31162;51.076;3.784;2023-05-10T10:43:27;25.30;99.90
45409;DHT22;31162;51.076;3.784;2023-05-10T10:48:47;23.60;99.90
45409;DHT22;31162;51.076;3.784;2023-05-10T10:51:16;23.10;99.90
45409;DHT22;31162;51.076;3.784;2023-05-10T10:53:43;22.60;99.90
45409;DHT22;31162;51.076;3.784;2023-05-10T10:56:10;21.90;99.90
45409;DHT22;31162;51.076;3.784;2023-05-10T10:58:40;21.20;99.90
45409;DHT22;31162;51.076;3.784;2023-05-10T11:01:17;20.50;99.90
45409;DHT22;31162;51.076;3.784;2023-05-10T11:06:33;19.90;99.90
45409;DHT22;31162;51.076;3.784;2023-05-10T11:09:08;19.80;99.90
45409;DHT22;31162;51.076;3.784;2023-05-10T11:11:35;19.70;99.90
45409;DHT22;31162;51.076;3.784;2023-05-10T11:14:06;19.20;99.90
45409;DHT22;31162;51.076;3.784;2023-05-10T11:16:44;18.80;99.90
45409;DHT22;31162;51.076;3.784;2023-05-10T11:19:12;18.30;99.90
45409;DHT22;31162;51.076;3.784;2023-05-10T11:22:11;18.00;99.90
45409;DHT22;31162;51.076;3.784;2023-05-10T11:24:38;17.80;99.90
45409;DHT22;31162;51.076;3.784;2023-05-10T11:27:05;17.50;99.90
45409;DHT22;31162;51.076;3.784;2023-05-10T11:29:31;17.30;99.90
45409;DHT22;31162;51.076;3.784;2023-05-10T11:31:57;17.30;99.90
45409;DHT22;31162;51.076;3.784;2023-05-10T11:34:31;17.10;99.90
45409;DHT22;31162;51.076;3.784;2023-05-10T11:37:00;17.00;99.90
45409;DHT22;31162;51.076;3.784;2023-05-10T11:39:27;16.70;99.90
45409;DHT22;31162;51.076;3.784;2023-05-10T11:41:54;16.60;99.90
45409;DHT22;31162;51.076;3.784;2023-05-10T11:44:19;16.60;99.90
45409;DHT22;31162;51.076;3.784;2023-05-10T11:46:45;16.60;99.90
45409;DHT22;31162;51.076;3.784;2023-05-10T11:49:14;16.70;99.90
45409;DHT22;31162;51.076;3.784;2023-05-10T11:51:41;16.60;99.90
45409;DHT22;31162;51.076;3.784;2023-05-10T11:54:10;16.50;99.90
45409;DHT22;31162;51.076;3.784;2023-05-10T11:56:39;16.70;99.90
45409;DHT22;31162;51.076;3.784;2023-05-10T11:59:06;16.80;99.90
45409;DHT22;31162;51.076;3.784;2023-05-10T12:01:31;17.10;99.90
45409;DHT22;31162;51.076;3.784;2023-05-10T12:03:58;17.40;99.90
45409;DHT22;31162;51.076;3.784;2023-05-10T12:06:31;17.70;99.90
45409;DHT22;31162;51.076;3.784;2023-05-10T12:08:57;18.30;99.90
45409;DHT22;31162;51.076;3.784;2023-05-10T12:11:28;18.80;99.90
45409;DHT22;31162;51.076;3.784;2023-05-10T12:13:54;19.00;99.90
45409;DHT22;31162;51.076;3.784;2023-05-10T12:16:25;19.60;99.90
45409;DHT22;31162;51.076;3.784;2023-05-10T12:18:56;19.60;99.90
45409;DHT22;31162;51.076;3.784;2023-05-10T12:21:22;19.30;99.90
45409;DHT22;31162;51.076;3.784;2023-05-10T12:23:52;19.40;99.90
45409;DHT22;31162;51.076;3.784;2023-05-10T12:26:21;19.50;99.90
45409;DHT22;31162;51.076;3.784;2023-05-10T12:28:47;19.70;99.90
45409;DHT22;31162;51.076;3.784;2023-05-10T12:31:15;19.70;99.90
45409;DHT22;31162;51.076;3.784;2023-05-10T12:33:43;19.60;99.90
45409;DHT22;31162;51.076;3.784;2023-05-10T12:36:10;19.50;99.90
45409;DHT22;31162;51.076;3.784;2023-05-10T12:38:38;19.50;99.90
45409;DHT22;31162;51.076;3.784;2023-05-10T12:41:09;19.60;99.90
45409;DHT22;31162;51.076;3.784;2023-05-10T12:43:38;19.50;99.90
45409;DHT22;31162;51.076;3.784;2023-05-10T12:46:16;19.70;99.90
45409;DHT22;31162;51.076;3.784;2023-05-10T12:48:44;19.90;99.90
45409;DHT22;31162;51.076;3.784;2023-05-10T12:51:20;20.00;99.90
45409;DHT22;31162;51.076;3.784;2023-05-10T12:53:47;20.10;99.90
45409;DHT22;31162;51.076;3.784;2023-05-10T12:56:13;20.00;99.90
45409;DHT22;31162;51.076;3.784;2023-05-10T12:58:39;20.10;99.90
45409;DHT22;31162;51.076;3.784;2023-05-10T13:01:05;20.10;99.90
45409;DHT22;31162;51.076;3.784;2023-05-10T13:03:31;19.90;99.90
45409;DHT22;31162;51.076;3.784;2023-05-10T13:05:56;19.40;99.90
45409;DHT22;31162;51.076;3.784;2023-05-10T13:08:22;19.00;99.90
45409;DHT22;31162;51.076;3.784;2023-05-10T13:10:48;18.80;99.90
45409;DHT22;31162;51.076;3.784;2023-05-10T13:13:16;18.70;99.90
45409;DHT22;31162;51.076;3.784;2023-05-10T13:15:43;18.50;99.90
45409;DHT22;31162;51.076;3.784;2023-05-10T13:18:09;18.40;99.90
45409;DHT22;31162;51.076;3.784;2023-05-10T13:20:35;18.30;99.90
45409;DHT22;31162;51.076;3.784;2023-05-10T13:23:01;18.20;99.90
45409;DHT22;31162;51.076;3.784;2023-05-10T13:25:27;18.10;99.90
45409;DHT22;31162;51.076;3.784;2023-05-10T13:27:53;18.00;99.90
45409;DHT22;31162;51.076;3.784;2023-05-10T13:30:19;18.00;99.90
45409;DHT22;31162;51.076;3.784;2023-05-10T13:32:45;17.90;99.90
45409;DHT22;31162;51.076;3.784;2023-05-10T13:35:11;17.80;99.90
45409;DHT22;31162;51.076;3.784;2023-05-10T13:37:37;17.60;99.90
45409;DHT22;31162;51.076;3.784;2023-05-10T13:40:06;17.50;99.90
45409;DHT22;31162;51.076;3.784;2023-05-10T13:42:32;17.20;99.90
45409;DHT22;31162;51.076;3.784;2023-05-10T13:44:59;17.20;99.90
45409;DHT22;31162;51.076;3.784;2023-05-10T13:47:26;17.30;99.90
45409;DHT22;31162;51.076;3.784;2023-05-10T13:49:52;17.30;99.90
45409;DHT22;31162;51.076;3.784;2023-05-10T13:52:17;17.40;99.90
45409;DHT22;31162;51.076;3.784;2023-05-10T13:54:43;17.30;99.90
45409;DHT22;31162;51.076;3.784;2023-05-10T13:57:09;17.30;99.90
45409;DHT22;31162;51.076;3.784;2023-05-10T13:59:37;17.40;99.90
45409;DHT22;31162;51.076;3.784;2023-05-10T14:02:05;17.50;99.90
45409;DHT22;31162;51.076;3.784;2023-05-10T14:04:31;17.60;99.90
45409;DHT22;31162;51.076;3.784;2023-05-10T14:06:57;17.60;99.90
45409;DHT22;31162;51.076;3.784;2023-05-10T14:09:23;17.70;99.90
45409;DHT22;31162;51.076;3.784;2023-05-10T14:11:48;17.70;99.90
45409;DHT22;31162;51.076;3.784;2023-05-10T14:14:14;17.80;99.90
45409;DHT22;31162;51.076;3.784;2023-05-10T14:16:44;17.80;99.90
45409;DHT22;31162;51.076;3.784;2023-05-10T14:19:10;17.80;99.90
45409;DHT22;31162;51.076;3.784;2023-05-10T14:21:38;17.70;99.90
45409;DHT22;31162;51.076;3.784;2023-05-10T14:24:04;17.70;99.90
45409;DHT22;31162;51.076;3.784;2023-05-10T14:26:30;17.60;99.90
45409;DHT22;31162;51.076;3.784;2023-05-10T14:28:56;17.60;99.90
45409;DHT22;31162;51.076;3.784;2023-05-10T14:31:22;17.40;99.90
45409;DHT22;31162;51.076;3.784;2023-05-10T14:33:49;17.40;99.90
45409;DHT22;31162;51.076;3.784;2023-05-10T14:36:15;17.30;99.90
45409;DHT22;31162;51.076;3.784;2023-05-10T14:38:41;17.30;99.90
45409;DHT22;31162;51.076;3.784;2023-05-10T14:41:06;17.40;99.90
45409;DHT22;31162;51.076;3.784;2023-05-10T14:43:32;17.30;99.90
45409;DHT22;31162;51.076;3.784;2023-05-10T14:45:58;17.30;99.90
45409;DHT22;31162;51.076;3.784;2023-05-10T14:48:24;17.30;99.90
45409;DHT22;31162;51.076;3.784;2023-05-10T14:50:49;17.10;99.90
45409;DHT22;31162;51.076;3.784;2023-05-10T14:53:15;17.10;99.90
45409;DHT22;31162;51.076;3.784;2023-05-10T14:55:41;17.00;99.90
45409;DHT22;31162;51.076;3.784;2023-05-10T14:58:07;16.90;99.90
45409;DHT22;31162;51.076;3.784;2023-05-10T15:00:32;16.80;99.90
45409;DHT22;31162;51.076;3.784;2023-05-10T15:02:58;16.80;99.90
45409;DHT22;31162;51.076;3.784;2023-05-10T15:05:24;16.80;99.90
45409;DHT22;31162;51.076;3.784;2023-05-10T15:07:49;16.90;99.90
45409;DHT22;31162;51.076;3.784;2023-05-10T15:10:17;16.90;99.90
45409;DHT22;31162;51.076;3.784;2023-05-10T15:12:43;16.90;99.90
45409;DHT22;31162;51.076;3.784;2023-05-10T15:15:11;17.10;99.90
45409;DHT22;31162;51.076;3.784;2023-05-10T15:17:36;17.10;99.90
45409;DHT22;31162;51.076;3.784;2023-05-10T15:20:02;17.20;99.90
45409;DHT22;31162;51.076;3.784;2023-05-10T15:22:29;17.20;99.90
45409;DHT22;31162;51.076;3.784;2023-05-10T15:24:55;17.20;99.90
45409;DHT22;31162;51.076;3.784;2023-05-10T15:27:21;17.10;99.90
45409;DHT22;31162;51.076;3.784;2023-05-10T15:29:49;17.10;99.90
45409;DHT22;31162;51.076;3.784;2023-05-10T15:32:14;17.00;99.90
45409;DHT22;31162;51.076;3.784;2023-05-10T15:34:40;17.00;99.90
45409;DHT22;31162;51.076;3.784;2023-05-10T15:37:06;17.10;99.90
45409;DHT22;31162;51.076;3.784;2023-05-10T15:39:32;17.10;99.90
45409;DHT22;31162;51.076;3.784;2023-05-10T15:41:57;17.00;99.90
45409;DHT22;31162;51.076;3.784;2023-05-10T15:44:23;17.00;99.90
45409;DHT22;31162;51.076;3.784;2023-05-10T15:46:49;17.10;99.90
45409;DHT22;31162;51.076;3.784;2023-05-10T15:49:15;17.10;99.90
45409;DHT22;31162;51.076;3.784;2023-05-10T15:51:40;17.10;99.90
45409;DHT22;31162;51.076;3.784;2023-05-10T15:54:06;17.30;99.90
45409;DHT22;31162;51.076;3.784;2023-05-10T15:56:32;17.40;99.90
45409;DHT22;31162;51.076;3.784;2023-05-10T15:58:59;17.50;99.90
45409;DHT22;31162;51.076;3.784;2023-05-10T16:01:24;17.60;99.90